sensor_id;sensor_type;location;lat;lon;timestamp;P1;durP1;ratioP1;P2;durP2;ratioP2
65174;SDS011;51761;42.126;24.752;2022-11-20T00:01:16;60.58;;;35.10;;
65174;SDS011;51761;42.126;24.752;2022-11-20T00:03:44;65.15;;;32.95;;
65174;SDS011;51761;42.126;24.752;2022-11-20T00:06:13;61.88;;;32.65;;
65174;SDS011;51761;42.126;24.752;2022-11-20T00:08:41;63.45;;;35.78;;
65174;SDS011;51761;42.126;24.752;2022-11-20T00:11:08;63.30;;;33.33;;
65174;SDS011;51761;42.126;24.752;2022-11-20T00:13:35;62.72;;;32.38;;
65174;SDS011;51761;42.126;24.752;2022-11-20T00:16:02;63.50;;;34.97;;
65174;SDS011;51761;42.126;24.752;2022-11-20T00:18:29;61.35;;;33.47;;
65174;SDS011;51761;42.126;24.752;2022-11-20T00:21:05;62.47;;;33.22;;
65174;SDS011;51761;42.126;24.752;2022-11-20T00:23:34;65.13;;;35.80;;
65174;SDS011;51761;42.126;24.752;2022-11-20T00:26:04;67.95;;;35.42;;
65174;SDS011;51761;42.126;24.752;2022-11-20T00:28:31;69.18;;;35.03;;
65174;SDS011;51761;42.126;24.752;2022-11-20T00:31:03;57.35;;;33.22;;
65174;SDS011;51761;42.126;24.752;2022-11-20T00:33:31;68.22;;;35.65;;
65174;SDS011;51761;42.126;24.752;2022-11-20T00:36:04;69.20;;;35.65;;
65174;SDS011;51761;42.126;24.752;2022-11-20T00:38:35;61.38;;;35.45;;
65174;SDS011;51761;42.126;24.752;2022-11-20T00:41:03;70.20;;;35.97;;
65174;SDS011;51761;42.126;24.752;2022-11-20T00:43:30;74.65;;;34.85;;
65174;SDS011;51761;42.126;24.752;2022-11-20T00:46:00;63.08;;;34.83;;
65174;SDS011;51761;42.126;24.752;2022-11-20T00:48:26;68.85;;;34.95;;
65174;SDS011;51761;42.126;24.752;2022-11-20T00:50:52;71.28;;;36.35;;
65174;SDS011;51761;42.126;24.752;2022-11-20T00:53:19;61.85;;;33.42;;
65174;SDS011;51761;42.126;24.752;2022-11-20T00:55:58;62.88;;;35.35;;
65174;SDS011;51761;42.126;24.752;2022-11-20T00:58:27;63.50;;;33.28;;
65174;SDS011;51761;42.126;24.752;2022-11-20T01:01:17;60.10;;;31.80;;
65174;SDS011;51761;42.126;24.752;2022-11-20T01:03:45;61.42;;;31.95;;
65174;SDS011;51761;42.126;24.752;2022-11-20T01:06:13;67.43;;;33.08;;
65174;SDS011;51761;42.126;24.752;2022-11-20T01:08:40;59.10;;;32.05;;
65174;SDS011;51761;42.126;24.752;2022-11-20T01:11:10;61.70;;;31.92;;
65174;SDS011;51761;42.126;24.752;2022-11-20T01:13:38;66.72;;;31.98;;
65174;SDS011;51761;42.126;24.752;2022-11-20T01:18:32;57.15;;;31.25;;
65174;SDS011;51761;42.126;24.752;2022-11-20T01:21:06;58.63;;;32.10;;
65174;SDS011;51761;42.126;24.752;2022-11-20T01:23:35;65.10;;;32.35;;
65174;SDS011;51761;42.126;24.752;2022-11-20T01:26:06;63.88;;;33.20;;
65174;SDS011;51761;42.126;24.752;2022-11-20T01:28:34;62.92;;;32.47;;
65174;SDS011;51761;42.126;24.752;2022-11-20T01:31:00;69.88;;;32.47;;
65174;SDS011;51761;42.126;24.752;2022-11-20T01:33:26;64.85;;;32.83;;
65174;SDS011;51761;42.126;24.752;2022-11-20T01:35:52;66.03;;;34.92;;
65174;SDS011;51761;42.126;24.752;2022-11-20T01:38:18;53.22;;;31.00;;
65174;SDS011;51761;42.126;24.752;2022-11-20T01:40:45;69.97;;;33.17;;
65174;SDS011;51761;42.126;24.752;2022-11-20T01:43:19;66.45;;;34.72;;
65174;SDS011;51761;42.126;24.752;2022-11-20T01:48:17;65.93;;;35.22;;
65174;SDS011;51761;42.126;24.752;2022-11-20T01:50:44;65.60;;;34.45;;
65174;SDS011;51761;42.126;24.752;2022-11-20T01:53:10;59.55;;;32.67;;
65174;SDS011;51761;42.126;24.752;2022-11-20T01:55:41;60.97;;;33.88;;
65174;SDS011;51761;42.126;24.752;2022-11-20T01:58:13;64.50;;;34.40;;
65174;SDS011;51761;42.126;24.752;2022-11-20T02:00:39;68.10;;;34.15;;
65174;SDS011;51761;42.126;24.752;2022-11-20T02:03:07;60.22;;;32.35;;
65174;SDS011;51761;42.126;24.752;2022-11-20T02:08:40;63.65;;;32.20;;
65174;SDS011;51761;42.126;24.752;2022-11-20T02:11:05;68.35;;;34.70;;
65174;SDS011;51761;42.126;24.752;2022-11-20T02:13:32;63.13;;;31.45;;
65174;SDS011;51761;42.126;24.752;2022-11-20T02:16:19;61.75;;;34.17;;
65174;SDS011;51761;42.126;24.752;2022-11-20T02:18:48;55.90;;;32.50;;
65174;SDS011;51761;42.126;24.752;2022-11-20T02:21:33;64.78;;;33.63;;
65174;SDS011;51761;42.126;24.752;2022-11-20T02:24:14;58.88;;;32.88;;
65174;SDS011;51761;42.126;24.752;2022-11-20T02:29:38;68.75;;;34.95;;
65174;SDS011;51761;42.126;24.752;2022-11-20T02:32:20;67.75;;;34.45;;
65174;SDS011;51761;42.126;24.752;2022-11-20T02:34:50;72.35;;;35.30;;
65174;SDS011;51761;42.126;24.752;2022-11-20T02:37:16;61.13;;;33.75;;
65174;SDS011;51761;42.126;24.752;2022-11-20T02:39:43;69.82;;;34.45;;
65174;SDS011;51761;42.126;24.752;2022-11-20T02:42:11;63.83;;;32.42;;
65174;SDS011;51761;42.126;24.752;2022-11-20T02:44:36;55.00;;;33.08;;
65174;SDS011;51761;42.126;24.752;2022-11-20T02:47:02;57.78;;;32.10;;
65174;SDS011;51761;42.126;24.752;2022-11-20T02:49:28;64.30;;;32.33;;
65174;SDS011;51761;42.126;24.752;2022-11-20T02:51:53;64.07;;;31.77;;
65174;SDS011;51761;42.126;24.752;2022-11-20T02:54:19;56.75;;;30.45;;
65174;SDS011;51761;42.126;24.752;2022-11-20T02:56:44;57.15;;;30.60;;
65174;SDS011;51761;42.126;24.752;2022-11-20T02:59:10;57.08;;;29.80;;
65174;SDS011;51761;42.126;24.752;2022-11-20T03:01:35;52.45;;;31.10;;
65174;SDS011;51761;42.126;24.752;2022-11-20T03:04:01;60.70;;;28.88;;
65174;SDS011;51761;42.126;24.752;2022-11-20T03:06:27;53.72;;;29.88;;
65174;SDS011;51761;42.126;24.752;2022-11-20T03:08:53;56.40;;;30.70;;
65174;SDS011;51761;42.126;24.752;2022-11-20T03:11:19;55.17;;;29.73;;
65174;SDS011;51761;42.126;24.752;2022-11-20T03:13:44;55.45;;;30.20;;
65174;SDS011;51761;42.126;24.752;2022-11-20T03:16:11;57.92;;;30.92;;
65174;SDS011;51761;42.126;24.752;2022-11-20T03:18:40;52.10;;;29.45;;
65174;SDS011;51761;42.126;24.752;2022-11-20T03:21:06;56.83;;;28.15;;
65174;SDS011;51761;42.126;24.752;2022-11-20T03:23:32;55.85;;;29.63;;
65174;SDS011;51761;42.126;24.752;2022-11-20T03:28:41;54.25;;;28.88;;
65174;SDS011;51761;42.126;24.752;2022-11-20T03:31:12;59.08;;;27.85;;
65174;SDS011;51761;42.126;24.752;2022-11-20T03:33:39;55.75;;;29.50;;
65174;SDS011;51761;42.126;24.752;2022-11-20T03:36:10;58.03;;;29.20;;
65174;SDS011;51761;42.126;24.752;2022-11-20T03:38:37;68.18;;;32.03;;
65174;SDS011;51761;42.126;24.752;2022-11-20T03:41:04;65.95;;;28.95;;
65174;SDS011;51761;42.126;24.752;2022-11-20T03:43:32;61.22;;;29.95;;
65174;SDS011;51761;42.126;24.752;2022-11-20T03:45:58;57.13;;;29.65;;
65174;SDS011;51761;42.126;24.752;2022-11-20T03:48:24;64.80;;;29.58;;
65174;SDS011;51761;42.126;24.752;2022-11-20T03:50:50;64.28;;;27.40;;
65174;SDS011;51761;42.126;24.752;2022-11-20T03:53:17;53.47;;;25.42;;
65174;SDS011;51761;42.126;24.752;2022-11-20T03:55:43;50.65;;;25.50;;
65174;SDS011;51761;42.126;24.752;2022-11-20T03:58:09;51.50;;;27.98;;
65174;SDS011;51761;42.126;24.752;2022-11-20T04:00:35;47.47;;;24.65;;
65174;SDS011;51761;42.126;24.752;2022-11-20T04:03:01;43.65;;;24.00;;
65174;SDS011;51761;42.126;24.752;2022-11-20T04:05:27;52.38;;;24.83;;
65174;SDS011;51761;42.126;24.752;2022-11-20T04:07:53;42.15;;;23.25;;
65174;SDS011;51761;42.126;24.752;2022-11-20T04:10:19;53.72;;;25.05;;
65174;SDS011;51761;42.126;24.752;2022-11-20T04:12:45;43.60;;;20.98;;
65174;SDS011;51761;42.126;24.752;2022-11-20T04:15:10;41.30;;;21.92;;
65174;SDS011;51761;42.126;24.752;2022-11-20T04:17:36;40.72;;;19.67;;
65174;SDS011;51761;42.126;24.752;2022-11-20T04:20:02;39.22;;;19.30;;
65174;SDS011;51761;42.126;24.752;2022-11-20T04:22:28;53.53;;;22.30;;
65174;SDS011;51761;42.126;24.752;2022-11-20T04:24:53;43.60;;;18.42;;
65174;SDS011;51761;42.126;24.752;2022-11-20T04:27:19;43.03;;;19.20;;
65174;SDS011;51761;42.126;24.752;2022-11-20T04:29:44;40.72;;;19.25;;
65174;SDS011;51761;42.126;24.752;2022-11-20T04:32:10;41.40;;;18.02;;
65174;SDS011;51761;42.126;24.752;2022-11-20T04:34:35;38.35;;;18.95;;
65174;SDS011;51761;42.126;24.752;2022-11-20T04:37:01;37.72;;;18.83;;
65174;SDS011;51761;42.126;24.752;2022-11-20T04:39:27;38.85;;;16.00;;
65174;SDS011;51761;42.126;24.752;2022-11-20T04:41:52;38.65;;;18.98;;
65174;SDS011;51761;42.126;24.752;2022-11-20T04:44:38;32.63;;;14.15;;
65174;SDS011;51761;42.126;24.752;2022-11-20T04:47:03;27.02;;;14.07;;
65174;SDS011;51761;42.126;24.752;2022-11-20T04:49:29;36.83;;;13.55;;
65174;SDS011;51761;42.126;24.752;2022-11-20T04:51:56;40.03;;;16.50;;
65174;SDS011;51761;42.126;24.752;2022-11-20T04:54:22;35.17;;;12.85;;
65174;SDS011;51761;42.126;24.752;2022-11-20T04:56:48;41.17;;;13.40;;
65174;SDS011;51761;42.126;24.752;2022-11-20T04:59:14;37.40;;;16.02;;
65174;SDS011;51761;42.126;24.752;2022-11-20T05:01:39;36.42;;;15.70;;
65174;SDS011;51761;42.126;24.752;2022-11-20T05:04:05;28.88;;;15.77;;
65174;SDS011;51761;42.126;24.752;2022-11-20T05:06:30;29.13;;;10.75;;
65174;SDS011;51761;42.126;24.752;2022-11-20T05:08:57;25.98;;;10.38;;
65174;SDS011;51761;42.126;24.752;2022-11-20T05:11:23;28.73;;;12.38;;
65174;SDS011;51761;42.126;24.752;2022-11-20T05:13:49;26.38;;;12.13;;
65174;SDS011;51761;42.126;24.752;2022-11-20T05:16:17;27.58;;;9.52;;
65174;SDS011;51761;42.126;24.752;2022-11-20T05:18:44;28.73;;;9.48;;
65174;SDS011;51761;42.126;24.752;2022-11-20T05:21:10;20.58;;;9.10;;
65174;SDS011;51761;42.126;24.752;2022-11-20T05:23:38;23.50;;;9.48;;
65174;SDS011;51761;42.126;24.752;2022-11-20T05:26:05;24.70;;;9.88;;
65174;SDS011;51761;42.126;24.752;2022-11-20T05:28:31;30.27;;;10.35;;
65174;SDS011;51761;42.126;24.752;2022-11-20T05:31:06;24.25;;;10.32;;
65174;SDS011;51761;42.126;24.752;2022-11-20T05:33:33;22.75;;;9.77;;
65174;SDS011;51761;42.126;24.752;2022-11-20T05:36:00;25.02;;;9.80;;
65174;SDS011;51761;42.126;24.752;2022-11-20T05:38:26;21.85;;;10.18;;
65174;SDS011;51761;42.126;24.752;2022-11-20T05:40:51;26.10;;;11.48;;
65174;SDS011;51761;42.126;24.752;2022-11-20T05:43:17;25.60;;;10.90;;
65174;SDS011;51761;42.126;24.752;2022-11-20T05:45:42;52.10;;;24.55;;
65174;SDS011;51761;42.126;24.752;2022-11-20T05:48:08;26.33;;;12.32;;
65174;SDS011;51761;42.126;24.752;2022-11-20T05:50:33;30.50;;;12.68;;
65174;SDS011;51761;42.126;24.752;2022-11-20T05:52:59;31.08;;;13.52;;
65174;SDS011;51761;42.126;24.752;2022-11-20T05:55:25;32.60;;;13.38;;
65174;SDS011;51761;42.126;24.752;2022-11-20T05:57:54;32.72;;;12.25;;
65174;SDS011;51761;42.126;24.752;2022-11-20T06:00:20;28.02;;;12.73;;
65174;SDS011;51761;42.126;24.752;2022-11-20T06:02:46;26.48;;;12.18;;
65174;SDS011;51761;42.126;24.752;2022-11-20T06:05:11;28.35;;;11.10;;
65174;SDS011;51761;42.126;24.752;2022-11-20T06:07:37;25.65;;;11.73;;
65174;SDS011;51761;42.126;24.752;2022-11-20T06:10:02;31.00;;;13.30;;
65174;SDS011;51761;42.126;24.752;2022-11-20T06:12:28;38.78;;;13.63;;
65174;SDS011;51761;42.126;24.752;2022-11-20T06:14:56;29.60;;;14.23;;
65174;SDS011;51761;42.126;24.752;2022-11-20T06:17:21;32.75;;;11.30;;
65174;SDS011;51761;42.126;24.752;2022-11-20T06:19:46;22.33;;;10.05;;
65174;SDS011;51761;42.126;24.752;2022-11-20T06:22:12;35.00;;;10.05;;
65174;SDS011;51761;42.126;24.752;2022-11-20T06:24:37;23.55;;;8.60;;
65174;SDS011;51761;42.126;24.752;2022-11-20T06:27:03;19.67;;;8.93;;
65174;SDS011;51761;42.126;24.752;2022-11-20T06:29:28;30.58;;;10.70;;
65174;SDS011;51761;42.126;24.752;2022-11-20T06:31:54;21.05;;;9.10;;
65174;SDS011;51761;42.126;24.752;2022-11-20T06:34:19;21.73;;;9.40;;
65174;SDS011;51761;42.126;24.752;2022-11-20T06:36:45;21.98;;;10.75;;
65174;SDS011;51761;42.126;24.752;2022-11-20T06:39:10;21.13;;;10.57;;
65174;SDS011;51761;42.126;24.752;2022-11-20T06:41:36;22.00;;;9.95;;
65174;SDS011;51761;42.126;24.752;2022-11-20T06:44:03;26.70;;;9.75;;
65174;SDS011;51761;42.126;24.752;2022-11-20T06:46:30;24.08;;;8.93;;
65174;SDS011;51761;42.126;24.752;2022-11-20T06:48:56;22.80;;;9.63;;
65174;SDS011;51761;42.126;24.752;2022-11-20T06:51:23;29.15;;;9.48;;
65174;SDS011;51761;42.126;24.752;2022-11-20T06:53:48;20.33;;;8.93;;
65174;SDS011;51761;42.126;24.752;2022-11-20T06:56:14;25.33;;;8.45;;
65174;SDS011;51761;42.126;24.752;2022-11-20T06:58:39;27.27;;;9.20;;
65174;SDS011;51761;42.126;24.752;2022-11-20T07:01:06;27.80;;;9.77;;
65174;SDS011;51761;42.126;24.752;2022-11-20T07:03:34;23.65;;;9.48;;
65174;SDS011;51761;42.126;24.752;2022-11-20T07:06:00;24.27;;;9.85;;
65174;SDS011;51761;42.126;24.752;2022-11-20T07:08:26;26.42;;;10.70;;
65174;SDS011;51761;42.126;24.752;2022-11-20T07:10:51;19.50;;;10.73;;
65174;SDS011;51761;42.126;24.752;2022-11-20T07:13:17;28.13;;;11.40;;
65174;SDS011;51761;42.126;24.752;2022-11-20T07:15:42;23.88;;;10.00;;
65174;SDS011;51761;42.126;24.752;2022-11-20T07:18:08;21.40;;;10.70;;
65174;SDS011;51761;42.126;24.752;2022-11-20T07:20:33;22.23;;;10.18;;
65174;SDS011;51761;42.126;24.752;2022-11-20T07:22:59;25.20;;;10.55;;
65174;SDS011;51761;42.126;24.752;2022-11-20T07:25:25;23.48;;;10.13;;
65174;SDS011;51761;42.126;24.752;2022-11-20T07:27:51;27.80;;;9.52;;
65174;SDS011;51761;42.126;24.752;2022-11-20T07:30:17;18.50;;;9.70;;
65174;SDS011;51761;42.126;24.752;2022-11-20T07:32:45;21.05;;;9.32;;
65174;SDS011;51761;42.126;24.752;2022-11-20T07:35:11;23.63;;;9.80;;
65174;SDS011;51761;42.126;24.752;2022-11-20T07:37:37;23.15;;;9.43;;
65174;SDS011;51761;42.126;24.752;2022-11-20T07:40:03;24.35;;;9.52;;
65174;SDS011;51761;42.126;24.752;2022-11-20T07:42:29;17.33;;;9.82;;
65174;SDS011;51761;42.126;24.752;2022-11-20T07:44:54;25.65;;;11.77;;
65174;SDS011;51761;42.126;24.752;2022-11-20T07:47:20;29.90;;;11.73;;
65174;SDS011;51761;42.126;24.752;2022-11-20T07:49:45;28.45;;;10.73;;
65174;SDS011;51761;42.126;24.752;2022-11-20T07:52:11;33.20;;;12.82;;
65174;SDS011;51761;42.126;24.752;2022-11-20T07:54:36;21.38;;;11.57;;
65174;SDS011;51761;42.126;24.752;2022-11-20T07:57:02;31.42;;;12.90;;
65174;SDS011;51761;42.126;24.752;2022-11-20T07:59:28;34.70;;;12.75;;
65174;SDS011;51761;42.126;24.752;2022-11-20T08:01:53;31.10;;;11.65;;
65174;SDS011;51761;42.126;24.752;2022-11-20T08:04:19;27.48;;;13.18;;
65174;SDS011;51761;42.126;24.752;2022-11-20T08:06:45;28.85;;;10.98;;
65174;SDS011;51761;42.126;24.752;2022-11-20T08:09:10;34.58;;;11.35;;
65174;SDS011;51761;42.126;24.752;2022-11-20T08:11:36;29.98;;;11.18;;
65174;SDS011;51761;42.126;24.752;2022-11-20T08:14:20;27.08;;;10.00;;
65174;SDS011;51761;42.126;24.752;2022-11-20T08:16:47;24.25;;;10.73;;
65174;SDS011;51761;42.126;24.752;2022-11-20T08:19:14;31.95;;;11.52;;
65174;SDS011;51761;42.126;24.752;2022-11-20T08:21:41;21.77;;;10.20;;
65174;SDS011;51761;42.126;24.752;2022-11-20T08:24:07;27.35;;;11.63;;
65174;SDS011;51761;42.126;24.752;2022-11-20T08:26:34;29.23;;;10.63;;
65174;SDS011;51761;42.126;24.752;2022-11-20T08:29:00;22.95;;;7.50;;
65174;SDS011;51761;42.126;24.752;2022-11-20T08:31:26;16.48;;;8.23;;
65174;SDS011;51761;42.126;24.752;2022-11-20T08:33:52;38.95;;;28.10;;
65174;SDS011;51761;42.126;24.752;2022-11-20T08:36:19;20.20;;;9.40;;
65174;SDS011;51761;42.126;24.752;2022-11-20T08:38:52;22.23;;;10.73;;
65174;SDS011;51761;42.126;24.752;2022-11-20T08:41:19;26.17;;;7.25;;
65174;SDS011;51761;42.126;24.752;2022-11-20T08:43:59;18.83;;;6.07;;
65174;SDS011;51761;42.126;24.752;2022-11-20T08:46:27;29.48;;;8.95;;
65174;SDS011;51761;42.126;24.752;2022-11-20T08:48:58;34.28;;;17.25;;
65174;SDS011;51761;42.126;24.752;2022-11-20T08:51:24;33.42;;;19.55;;
65174;SDS011;51761;42.126;24.752;2022-11-20T08:53:51;30.50;;;17.48;;
65174;SDS011;51761;42.126;24.752;2022-11-20T08:56:17;35.05;;;17.50;;
65174;SDS011;51761;42.126;24.752;2022-11-20T08:58:42;26.25;;;11.38;;
65174;SDS011;51761;42.126;24.752;2022-11-20T09:01:08;25.35;;;9.38;;
65174;SDS011;51761;42.126;24.752;2022-11-20T09:03:34;13.55;;;6.80;;
65174;SDS011;51761;42.126;24.752;2022-11-20T09:06:00;14.27;;;5.90;;
65174;SDS011;51761;42.126;24.752;2022-11-20T09:08:27;13.63;;;4.78;;
65174;SDS011;51761;42.126;24.752;2022-11-20T09:10:54;17.65;;;5.68;;
65174;SDS011;51761;42.126;24.752;2022-11-20T09:13:20;12.57;;;5.60;;
65174;SDS011;51761;42.126;24.752;2022-11-20T09:15:47;13.60;;;5.72;;
65174;SDS011;51761;42.126;24.752;2022-11-20T09:18:17;14.27;;;5.20;;
65174;SDS011;51761;42.126;24.752;2022-11-20T09:20:42;13.32;;;5.32;;
65174;SDS011;51761;42.126;24.752;2022-11-20T09:23:08;13.35;;;5.47;;
65174;SDS011;51761;42.126;24.752;2022-11-20T09:25:33;19.55;;;5.32;;
65174;SDS011;51761;42.126;24.752;2022-11-20T09:27:59;14.27;;;5.50;;
65174;SDS011;51761;42.126;24.752;2022-11-20T09:30:25;16.02;;;6.70;;
65174;SDS011;51761;42.126;24.752;2022-11-20T09:32:51;19.60;;;7.05;;
65174;SDS011;51761;42.126;24.752;2022-11-20T09:35:16;21.30;;;7.50;;
65174;SDS011;51761;42.126;24.752;2022-11-20T09:37:43;16.30;;;8.25;;
65174;SDS011;51761;42.126;24.752;2022-11-20T09:40:19;17.85;;;8.45;;
65174;SDS011;51761;42.126;24.752;2022-11-20T09:56:15;13.38;;;5.32;;
65174;SDS011;51761;42.126;24.752;2022-11-20T09:58:43;13.35;;;5.57;;
65174;SDS011;51761;42.126;24.752;2022-11-20T10:06:15;12.98;;;4.68;;
65174;SDS011;51761;42.126;24.752;2022-11-20T10:08:55;17.20;;;5.15;;
65174;SDS011;51761;42.126;24.752;2022-11-20T10:11:33;9.15;;;4.00;;
65174;SDS011;51761;42.126;24.752;2022-11-20T10:14:27;13.95;;;4.75;;
65174;SDS011;51761;42.126;24.752;2022-11-20T10:22:25;16.67;;;4.20;;
65174;SDS011;51761;42.126;24.752;2022-11-20T10:25:19;16.83;;;3.97;;
65174;SDS011;51761;42.126;24.752;2022-11-20T10:27:50;11.70;;;3.03;;
65174;SDS011;51761;42.126;24.752;2022-11-20T10:30:19;12.88;;;4.50;;
65174;SDS011;51761;42.126;24.752;2022-11-20T10:32:51;11.25;;;3.70;;
65174;SDS011;51761;42.126;24.752;2022-11-20T10:35:23;10.18;;;4.20;;
65174;SDS011;51761;42.126;24.752;2022-11-20T10:38:00;10.88;;;4.45;;
65174;SDS011;51761;42.126;24.752;2022-11-20T10:40:44;14.32;;;4.50;;
65174;SDS011;51761;42.126;24.752;2022-11-20T10:43:46;17.38;;;5.13;;
65174;SDS011;51761;42.126;24.752;2022-11-20T10:46:14;18.27;;;5.00;;
65174;SDS011;51761;42.126;24.752;2022-11-20T10:48:43;16.08;;;4.93;;
65174;SDS011;51761;42.126;24.752;2022-11-20T10:56:47;18.65;;;6.60;;
65174;SDS011;51761;42.126;24.752;2022-11-20T11:02:19;19.23;;;5.65;;
65174;SDS011;51761;42.126;24.752;2022-11-20T11:04:47;17.02;;;5.82;;
65174;SDS011;51761;42.126;24.752;2022-11-20T11:09:48;32.42;;;7.20;;
65174;SDS011;51761;42.126;24.752;2022-11-20T11:12:15;27.63;;;10.60;;
65174;SDS011;51761;42.126;24.752;2022-11-20T11:15:00;25.60;;;8.32;;
65174;SDS011;51761;42.126;24.752;2022-11-20T11:17:26;27.70;;;7.80;;
65174;SDS011;51761;42.126;24.752;2022-11-20T11:22:30;22.60;;;7.57;;
65174;SDS011;51761;42.126;24.752;2022-11-20T11:24:57;34.45;;;9.50;;
65174;SDS011;51761;42.126;24.752;2022-11-20T11:27:23;27.30;;;9.63;;
65174;SDS011;51761;42.126;24.752;2022-11-20T11:29:48;27.30;;;9.45;;
65174;SDS011;51761;42.126;24.752;2022-11-20T11:32:15;22.63;;;8.52;;
65174;SDS011;51761;42.126;24.752;2022-11-20T11:34:43;25.60;;;8.63;;
65174;SDS011;51761;42.126;24.752;2022-11-20T11:37:15;25.95;;;8.93;;
65174;SDS011;51761;42.126;24.752;2022-11-20T11:39:43;18.15;;;8.15;;
65174;SDS011;51761;42.126;24.752;2022-11-20T11:42:12;29.25;;;8.40;;
65174;SDS011;51761;42.126;24.752;2022-11-20T11:44:51;30.20;;;8.75;;
65174;SDS011;51761;42.126;24.752;2022-11-20T11:47:32;22.67;;;7.63;;
65174;SDS011;51761;42.126;24.752;2022-11-20T11:50:07;27.90;;;9.02;;
65174;SDS011;51761;42.126;24.752;2022-11-20T11:55:36;18.55;;;6.72;;
65174;SDS011;51761;42.126;24.752;2022-11-20T12:03:44;41.88;;;10.20;;
65174;SDS011;51761;42.126;24.752;2022-11-20T12:06:24;27.35;;;6.38;;
65174;SDS011;51761;42.126;24.752;2022-11-20T12:08:55;29.98;;;6.20;;
65174;SDS011;51761;42.126;24.752;2022-11-20T12:11:37;18.30;;;5.85;;
65174;SDS011;51761;42.126;24.752;2022-11-20T12:16:40;22.88;;;6.18;;
65174;SDS011;51761;42.126;24.752;2022-11-20T12:19:13;18.10;;;6.65;;
65174;SDS011;51761;42.126;24.752;2022-11-20T12:24:28;23.45;;;6.85;;
65174;SDS011;51761;42.126;24.752;2022-11-20T12:30:27;25.95;;;5.82;;
65174;SDS011;51761;42.126;24.752;2022-11-20T12:38:59;27.08;;;6.03;;
65174;SDS011;51761;42.126;24.752;2022-11-20T12:47:38;15.88;;;5.40;;
65174;SDS011;51761;42.126;24.752;2022-11-20T12:55:49;17.73;;;5.75;;
65174;SDS011;51761;42.126;24.752;2022-11-20T12:58:48;19.20;;;4.55;;
65174;SDS011;51761;42.126;24.752;2022-11-20T13:04:13;22.35;;;6.38;;
65174;SDS011;51761;42.126;24.752;2022-11-20T13:06:54;20.02;;;6.47;;
65174;SDS011;51761;42.126;24.752;2022-11-20T13:09:20;23.10;;;4.90;;
65174;SDS011;51761;42.126;24.752;2022-11-20T13:12:01;15.73;;;4.38;;
65174;SDS011;51761;42.126;24.752;2022-11-20T13:19:51;19.38;;;4.07;;
65174;SDS011;51761;42.126;24.752;2022-11-20T13:22:29;20.40;;;6.70;;
65174;SDS011;51761;42.126;24.752;2022-11-20T13:25:09;20.92;;;5.35;;
65174;SDS011;51761;42.126;24.752;2022-11-20T13:27:35;16.60;;;5.07;;
65174;SDS011;51761;42.126;24.752;2022-11-20T13:30:12;23.52;;;5.15;;
65174;SDS011;51761;42.126;24.752;2022-11-20T13:33:22;22.95;;;4.43;;
65174;SDS011;51761;42.126;24.752;2022-11-20T13:36:04;19.20;;;4.47;;
65174;SDS011;51761;42.126;24.752;2022-11-20T13:38:51;28.13;;;4.65;;
65174;SDS011;51761;42.126;24.752;2022-11-20T13:41:25;21.00;;;5.60;;
65174;SDS011;51761;42.126;24.752;2022-11-20T13:44:04;41.33;;;5.90;;
65174;SDS011;51761;42.126;24.752;2022-11-20T13:46:41;24.20;;;5.05;;
65174;SDS011;51761;42.126;24.752;2022-11-20T13:49:21;23.75;;;5.72;;
65174;SDS011;51761;42.126;24.752;2022-11-20T13:51:51;25.70;;;5.72;;
65174;SDS011;51761;42.126;24.752;2022-11-20T13:57:56;18.92;;;3.88;;
65174;SDS011;51761;42.126;24.752;2022-11-20T14:00:43;21.92;;;3.63;;
65174;SDS011;51761;42.126;24.752;2022-11-20T14:03:30;11.18;;;2.72;;
65174;SDS011;51761;42.126;24.752;2022-11-20T14:06:03;15.85;;;2.45;;
65174;SDS011;51761;42.126;24.752;2022-11-20T14:08:38;11.68;;;2.17;;
65174;SDS011;51761;42.126;24.752;2022-11-20T14:11:17;12.98;;;1.95;;
65174;SDS011;51761;42.126;24.752;2022-11-20T14:14:12;14.68;;;2.80;;
65174;SDS011;51761;42.126;24.752;2022-11-20T14:16:40;6.80;;;1.45;;
65174;SDS011;51761;42.126;24.752;2022-11-20T14:21:46;5.38;;;1.05;;
65174;SDS011;51761;42.126;24.752;2022-11-20T14:24:18;2.75;;;0.93;;
65174;SDS011;51761;42.126;24.752;2022-11-20T14:26:45;7.05;;;1.20;;
65174;SDS011;51761;42.126;24.752;2022-11-20T14:29:22;8.07;;;1.75;;
65174;SDS011;51761;42.126;24.752;2022-11-20T14:31:53;9.05;;;1.20;;
65174;SDS011;51761;42.126;24.752;2022-11-20T14:34:30;2.40;;;1.30;;
65174;SDS011;51761;42.126;24.752;2022-11-20T14:36:58;10.27;;;1.90;;
65174;SDS011;51761;42.126;24.752;2022-11-20T14:39:33;9.25;;;2.75;;
65174;SDS011;51761;42.126;24.752;2022-11-20T14:44:29;6.88;;;2.35;;
65174;SDS011;51761;42.126;24.752;2022-11-20T14:46:58;4.28;;;2.15;;
65174;SDS011;51761;42.126;24.752;2022-11-20T14:49:26;9.68;;;2.50;;
65174;SDS011;51761;42.126;24.752;2022-11-20T14:52:00;5.22;;;2.55;;
65174;SDS011;51761;42.126;24.752;2022-11-20T14:54:28;7.88;;;2.17;;
65174;SDS011;51761;42.126;24.752;2022-11-20T14:59:25;7.07;;;2.38;;
65174;SDS011;51761;42.126;24.752;2022-11-20T15:01:59;8.90;;;2.47;;
65174;SDS011;51761;42.126;24.752;2022-11-20T15:04:30;9.15;;;2.45;;
65174;SDS011;51761;42.126;24.752;2022-11-20T15:06:56;7.45;;;3.08;;
65174;SDS011;51761;42.126;24.752;2022-11-20T15:09:25;10.57;;;3.28;;
65174;SDS011;51761;42.126;24.752;2022-11-20T15:11:54;7.70;;;3.53;;
65174;SDS011;51761;42.126;24.752;2022-11-20T15:14:25;7.38;;;3.97;;
65174;SDS011;51761;42.126;24.752;2022-11-20T15:16:52;7.10;;;1.90;;
65174;SDS011;51761;42.126;24.752;2022-11-20T15:19:22;17.23;;;3.70;;
65174;SDS011;51761;42.126;24.752;2022-11-20T15:21:49;33.88;;;14.55;;
65174;SDS011;51761;42.126;24.752;2022-11-20T15:24:15;15.00;;;6.38;;
65174;SDS011;51761;42.126;24.752;2022-11-20T15:26:42;4.78;;;2.25;;
65174;SDS011;51761;42.126;24.752;2022-11-20T15:29:09;17.38;;;6.15;;
65174;SDS011;51761;42.126;24.752;2022-11-20T15:31:39;9.95;;;2.50;;
65174;SDS011;51761;42.126;24.752;2022-11-20T15:34:13;8.93;;;2.03;;
65174;SDS011;51761;42.126;24.752;2022-11-20T15:36:40;13.80;;;5.85;;
65174;SDS011;51761;42.126;24.752;2022-11-20T15:39:07;22.13;;;9.60;;
65174;SDS011;51761;42.126;24.752;2022-11-20T15:41:34;14.77;;;4.90;;
65174;SDS011;51761;42.126;24.752;2022-11-20T15:44:00;10.70;;;4.15;;
65174;SDS011;51761;42.126;24.752;2022-11-20T15:46:26;13.75;;;6.68;;
65174;SDS011;51761;42.126;24.752;2022-11-20T15:48:54;21.42;;;6.95;;
65174;SDS011;51761;42.126;24.752;2022-11-20T15:51:32;22.85;;;6.82;;
65174;SDS011;51761;42.126;24.752;2022-11-20T15:54:00;20.45;;;7.50;;
65174;SDS011;51761;42.126;24.752;2022-11-20T15:56:28;16.13;;;6.03;;
65174;SDS011;51761;42.126;24.752;2022-11-20T15:58:54;20.58;;;4.80;;
65174;SDS011;51761;42.126;24.752;2022-11-20T16:01:21;22.95;;;5.20;;
65174;SDS011;51761;42.126;24.752;2022-11-20T16:03:47;6.47;;;2.75;;
65174;SDS011;51761;42.126;24.752;2022-11-20T16:06:13;7.18;;;2.80;;
65174;SDS011;51761;42.126;24.752;2022-11-20T16:08:41;12.55;;;3.78;;
65174;SDS011;51761;42.126;24.752;2022-11-20T16:11:06;13.27;;;3.38;;
65174;SDS011;51761;42.126;24.752;2022-11-20T16:13:34;8.27;;;3.33;;